Time;durP1;ratioP1;P1;durP2;ratioP2;P2;SDS_P1;SDS_P2;PMS_P1;PMS_P2;Temp;Humidity;BMP_temperature;BMP_pressure;BME280_temperature;BME280_humidity;BME280_pressure;Samples;Min_cycle;Max_cycle;Signal;HPM_P1;HPM_P2
2024/01/16 00:01:03;;;;;;;28.43;14.90;;;;;;;2.49;77.57;98725.70;123639;1099;104274;-77
2024/01/16 00:03:48;;;;;;;32.73;15.67;;;;;;;2.42;77.67;98721.09;123553;1099;104300;-77
2024/01/16 00:06:20;;;;;;;29.10;15.25;;;;;;;2.42;78.01;98709.86;123289;1100;104307;-76
2024/01/16 00:08:51;;;;;;;31.75;15.85;;;;;;;2.43;78.47;98715.09;123751;1099;104202;-76
2024/01/16 00:11:22;;;;;;;31.45;16.40;;;;;;;2.44;78.06;98727.20;123954;1099;104262;-77
2024/01/16 00:13:53;;;;;;;34.67;17.33;;;;;;;2.47;78.22;98741.98;123386;1099;104415;-76
2024/01/16 00:16:25;;;;;;;32.93;16.67;;;;;;;2.47;78.47;98747.16;123802;1099;104222;-77
2024/01/16 00:18:56;;;;;;;31.93;16.37;;;;;;;2.48;78.81;98747.22;123735;1098;104242;-77
2024/01/16 00:21:27;;;;;;;36.70;16.65;;;;;;;2.48;77.99;98747.22;123707;1099;104380;-77
2024/01/16 00:23:58;;;;;;;31.30;16.20;;;;;;;2.42;77.50;98746.97;123663;1099;104728;-76
2024/01/16 00:26:29;;;;;;;31.57;14.83;;;;;;;2.36;77.96;98756.21;123118;1099;104399;-77
2024/01/16 00:29:01;;;;;;;32.30;17.47;;;;;;;2.33;78.56;98756.96;123184;1099;104274;-76
2024/01/16 00:31:32;;;;;;;35.67;17.53;;;;;;;2.32;79.07;98756.09;123202;1099;104306;-77
2024/01/16 00:34:03;;;;;;;31.57;16.37;;;;;;;2.33;78.66;98757.83;123133;1099;104229;-76
2024/01/16 00:36:34;;;;;;;33.50;17.90;;;;;;;2.36;79.52;98753.63;123234;1099;104307;-76
2024/01/16 00:39:07;;;;;;;34.17;16.93;;;;;;;2.36;79.56;98740.68;123517;1099;104415;-76
2024/01/16 00:41:38;;;;;;;33.00;16.77;;;;;;;2.37;79.48;98740.74;123677;1099;104779;-77
2024/01/16 00:44:09;;;;;;;32.47;16.20;;;;;;;2.37;79.21;98743.33;123390;1099;104353;-76
2024/01/16 00:46:41;;;;;;;33.17;16.57;;;;;;;2.40;79.61;98746.05;123641;1099;104261;-76
2024/01/16 00:49:12;;;;;;;32.07;17.03;;;;;;;2.43;80.21;98746.16;123746;1098;104350;-76
2024/01/16 00:51:43;;;;;;;31.43;16.63;;;;;;;2.42;79.77;98739.21;123746;1098;104213;-76
2024/01/16 00:54:14;;;;;;;30.40;15.53;;;;;;;2.46;80.02;98755.73;123761;1099;104321;-76
2024/01/16 00:56:45;;;;;;;29.90;15.75;;;;;;;2.44;80.33;98760.85;123607;1099;104374;-76
2024/01/16 00:59:16;;;;;;;29.25;15.95;;;;;;;2.43;80.45;98759.11;123651;1099;104226;-75
2024/01/16 01:01:48;;;;;;;27.93;14.07;;;;;;;2.40;80.01;98758.08;123663;1099;104226;-76
2024/01/16 01:04:19;;;;;;;30.13;15.80;;;;;;;2.37;80.15;98758.86;123237;1099;104361;-76
2024/01/16 01:06:50;;;;;;;29.35;15.20;;;;;;;2.40;80.55;98755.48;123555;1098;104379;-76
2024/01/16 01:09:22;;;;;;;28.27;13.80;;;;;;;2.38;79.63;98762.33;123494;1099;104297;-78
2024/01/16 01:11:53;;;;;;;32.90;15.10;;;;;;;2.27;79.96;98770.52;123768;1099;104309;-77
2024/01/16 01:14:25;;;;;;;29.10;15.67;;;;;;;2.20;80.76;98772.80;123505;1099;104319;-77
2024/01/16 01:16:56;;;;;;;28.97;13.53;;;;;;;2.13;79.95;98775.13;123617;1099;104361;-77
2024/01/16 01:19:28;;;;;;;28.93;13.67;;;;;;;2.09;80.45;98767.20;123705;1099;104379;-77
2024/01/16 01:21:59;;;;;;;31.43;15.70;;;;;;;2.05;80.43;98765.30;123404;1099;104297;-77
2024/01/16 01:24:30;;;;;;;30.07;15.40;;;;;;;1.99;80.52;98781.44;123759;1099;104258;-77
2024/01/16 01:27:01;;;;;;;28.40;15.47;;;;;;;1.94;80.92;98780.38;123793;1099;104374;-77
2024/01/16 01:29:32;;;;;;;32.75;16.25;;;;;;;1.89;80.70;98792.23;123465;1099;104334;-77
2024/01/16 01:32:04;;;;;;;29.90;15.35;;;;;;;1.86;80.95;98792.98;123654;1099;104377;-77
2024/01/16 01:34:35;;;;;;;33.90;17.15;;;;;;;1.84;81.14;98801.48;123678;1099;104376;-76
2024/01/16 01:37:06;;;;;;;32.63;15.63;;;;;;;1.82;81.10;98801.41;123641;1099;104342;-76
2024/01/16 01:39:38;;;;;;;33.20;16.15;;;;;;;1.77;81.82;98796.05;123618;1098;104282;-76
2024/01/16 01:42:09;;;;;;;34.60;17.37;;;;;;;1.73;81.19;98801.02;123583;1099;108311;-76
2024/01/16 01:44:41;;;;;;;34.13;16.57;;;;;;;1.70;82.33;98804.37;123718;1099;104278;-77
2024/01/16 01:47:12;;;;;;;33.53;16.53;;;;;;;1.68;82.14;98811.16;123598;1099;104357;-76
2024/01/16 01:49:44;;;;;;;31.10;15.97;;;;;;;1.64;82.15;98827.37;123262;1099;104309;-76
2024/01/16 01:52:15;;;;;;;31.03;15.50;;;;;;;1.63;82.78;98837.65;123753;1099;104354;-77
2024/01/16 01:54:48;;;;;;;32.60;16.07;;;;;;;1.59;83.18;98834.92;123380;1099;104459;-77
2024/01/16 01:57:20;;;;;;;30.50;15.43;;;;;;;1.55;82.87;98827.84;123334;1099;104335;-77
2024/01/16 01:59:51;;;;;;;32.17;15.70;;;;;;;1.53;83.14;98826.02;123603;1099;104271;-77
2024/01/16 02:02:23;;;;;;;30.80;15.67;;;;;;;1.49;82.89;98822.39;123286;1099;104255;-77
2024/01/16 02:04:55;;;;;;;29.90;14.53;;;;;;;1.49;83.34;98840.48;123604;1099;104469;-76
2024/01/16 02:07:26;;;;;;;30.33;14.97;;;;;;;1.47;83.19;98846.42;123516;1099;104374;-77
2024/01/16 02:10:00;;;;;;;27.90;14.37;;;;;;;1.44;84.08;98849.75;123302;1102;104284;-76
2024/01/16 02:12:32;;;;;;;30.45;15.70;;;;;;;1.39;83.54;98862.46;123624;1099;104284;-76
2024/01/16 02:15:03;;;;;;;28.60;14.73;;;;;;;1.37;85.61;98883.88;123302;1102;104326;-76
2024/01/16 02:17:35;;;;;;;29.83;15.00;;;;;;;1.33;85.36;98892.31;123555;1099;104344;-76
2024/01/16 02:20:08;;;;;;;32.60;16.75;;;;;;;1.28;85.52;98878.27;123586;1099;104251;-77
2024/01/16 02:22:40;;;;;;;30.03;15.33;;;;;;;1.23;85.62;98878.06;123627;1099;104325;-76
2024/01/16 02:25:13;;;;;;;31.30;15.80;;;;;;;1.20;85.79;98883.08;123578;1099;104275;-76
2024/01/16 02:27:44;;;;;;;28.75;15.20;;;;;;;1.17;85.62;98889.02;123338;1098;104283;-76
2024/01/16 02:30:16;;;;;;;31.33;15.77;;;;;;;1.15;86.04;98877.70;123571;1099;104288;-76
2024/01/16 02:32:47;;;;;;;32.03;16.10;;;;;;;1.11;86.72;98868.05;123537;1099;104281;-77
2024/01/16 02:35:19;;;;;;;30.30;15.30;;;;;;;1.08;86.49;98857.58;123594;1099;104233;-75
2024/01/16 02:37:50;;;;;;;30.95;16.00;;;;;;;1.04;86.01;98850.48;123574;1099;104254;-76
2024/01/16 02:40:21;;;;;;;30.83;16.07;;;;;;;1.03;86.06;98862.53;123584;1099;104195;-77
2024/01/16 02:42:53;;;;;;;30.40;16.13;;;;;;;1.02;85.59;98888.28;123261;1099;104328;-76
2024/01/16 02:45:24;;;;;;;33.03;16.27;;;;;;;1.01;86.38;98877.08;123495;1099;104354;-77
2024/01/16 02:47:55;;;;;;;29.67;14.90;;;;;;;0.99;86.23;98870.94;123517;1099;104370;-76
2024/01/16 02:50:26;;;;;;;30.70;15.77;;;;;;;0.97;86.54;98893.23;123581;1098;104271;-76
2024/01/16 02:52:57;;;;;;;30.93;15.43;;;;;;;0.98;86.97;98905.34;123524;1099;104281;-76
2024/01/16 02:55:29;;;;;;;31.20;17.07;;;;;;;0.95;86.39;98905.20;123232;1100;104335;-76
2024/01/16 02:58:00;;;;;;;27.87;14.73;;;;;;;0.94;86.84;98908.58;123689;1099;104345;-76
2024/01/16 03:00:32;;;;;;;28.47;14.90;;;;;;;0.93;86.73;98911.09;123664;1099;104278;-76
2024/01/16 03:03:03;;;;;;;29.00;14.93;;;;;;;0.92;87.11;98923.12;123165;1099;104354;-76
2024/01/16 03:05:34;;;;;;;29.45;14.65;;;;;;;0.92;86.83;98917.05;123254;1099;104300;-76
2024/01/16 03:08:06;;;;;;;31.17;15.93;;;;;;;0.90;86.54;98922.15;123485;1099;104795;-75
2024/01/16 03:10:37;;;;;;;28.60;14.40;;;;;;;0.92;87.62;98917.05;123174;1099;104268;-76
2024/01/16 03:13:08;;;;;;;28.90;15.13;;;;;;;0.89;86.71;98918.69;123490;1099;104331;-75
2024/01/16 03:15:40;;;;;;;28.53;14.40;;;;;;;0.91;86.56;98923.05;123485;1099;104393;-76
2024/01/16 03:18:12;;;;;;;29.95;14.80;;;;;;;0.91;86.45;98929.09;123544;1099;104169;-76
2024/01/16 03:20:43;;;;;;;26.60;13.33;;;;;;;0.92;86.52;98948.05;123468;1099;104262;-76
2024/01/16 03:23:14;;;;;;;26.70;14.03;;;;;;;0.92;86.63;98940.30;123425;1099;104326;-76
2024/01/16 03:25:46;;;;;;;27.40;12.97;;;;;;;0.93;87.16;98937.79;123516;1099;104755;-76
2024/01/16 03:28:17;;;;;;;26.43;13.73;;;;;;;0.91;86.69;98926.52;123170;1099;104271;-76
2024/01/16 03:30:48;;;;;;;24.30;12.57;;;;;;;0.91;86.98;98928.22;123505;1099;104275;-76
2024/01/16 03:33:20;;;;;;;24.47;12.57;;;;;;;0.93;87.43;98934.34;123441;1099;104255;-77
2024/01/16 03:35:51;;;;;;;26.10;12.20;;;;;;;0.91;86.97;98952.34;123548;1099;104306;-76
2024/01/16 03:38:22;;;;;;;27.80;13.63;;;;;;;0.92;87.02;98969.62;123478;1099;104255;-76
2024/01/16 03:40:53;;;;;;;27.23;13.67;;;;;;;0.91;86.71;98970.42;123431;1099;104322;-77
2024/01/16 03:43:25;;;;;;;26.33;13.47;;;;;;;0.91;87.02;98967.83;123246;1099;104227;-77
2024/01/16 03:45:57;;;;;;;26.17;13.03;;;;;;;0.89;87.23;98962.59;123124;1099;104296;-76
2024/01/16 03:48:28;;;;;;;25.17;13.13;;;;;;;0.88;87.13;98954.77;123482;1099;104217;-77
2024/01/16 03:51:00;;;;;;;27.17;14.30;;;;;;;0.87;87.18;98946.15;123460;1099;104363;-76
2024/01/16 03:53:31;;;;;;;26.17;13.40;;;;;;;0.87;87.40;98930.66;123459;1099;104256;-76
2024/01/16 03:56:02;;;;;;;26.10;12.83;;;;;;;0.86;87.19;98938.33;123550;1099;104687;-77
2024/01/16 03:58:33;;;;;;;25.37;12.47;;;;;;;0.86;86.96;98953.82;123231;1099;104626;-76
2024/01/16 04:01:05;;;;;;;25.67;13.03;;;;;;;0.85;87.37;98941.70;123108;1102;104379;-77
2024/01/16 04:03:36;;;;;;;25.00;12.93;;;;;;;0.87;87.77;98948.73;123448;1099;104284;-76
2024/01/16 04:06:17;;;;;;;27.70;12.70;;;;;;;0.91;87.44;98948.87;123496;1099;104277;-77
2024/01/16 04:08:48;;;;;;;25.97;12.83;;;;;;;0.93;87.40;98942.95;123290;1099;104348;-76
2024/01/16 04:11:20;;;;;;;26.67;13.03;;;;;;;0.93;87.45;98939.50;123402;1099;104350;-77
2024/01/16 04:13:51;;;;;;;27.00;13.40;;;;;;;0.92;87.36;98935.13;123407;1098;104287;-76
2024/01/16 04:16:22;;;;;;;27.20;12.95;;;;;;;0.88;87.09;98923.78;123244;1099;104319;-76
2024/01/16 04:18:53;;;;;;;26.50;12.90;;;;;;;0.85;87.54;98939.13;123529;1099;104226;-77
2024/01/16 04:21:24;;;;;;;26.47;13.23;;;;;;;0.85;87.38;98952.91;123471;1099;104351;-77
2024/01/16 04:23:55;;;;;;;28.07;13.37;;;;;;;0.87;87.21;98959.06;123176;1099;104284;-76
2024/01/16 04:26:26;;;;;;;29.60;14.15;;;;;;;0.88;87.67;98965.09;123462;1099;104348;-76
2024/01/16 04:28:58;;;;;;;26.87;13.67;;;;;;;0.90;87.23;98955.72;123170;1100;104355;-76
2024/01/16 04:31:29;;;;;;;26.70;13.45;;;;;;;0.93;87.80;98942.08;123508;1099;104350;-77
2024/01/16 04:34:01;;;;;;;26.13;12.97;;;;;;;0.94;87.61;98954.20;123139;1099;104303;-76
2024/01/16 04:36:32;;;;;;;27.97;13.97;;;;;;;0.98;87.97;98957.00;123559;1099;104252;-77
2024/01/16 04:39:04;;;;;;;27.20;13.25;;;;;;;1.02;87.76;98969.23;123475;1099;104376;-76
2024/01/16 04:41:35;;;;;;;25.80;13.23;;;;;;;1.06;87.91;98963.42;123523;1099;104274;-77
2024/01/16 04:44:07;;;;;;;27.47;13.83;;;;;;;1.09;88.18;98973.00;123435;1099;104723;-76
2024/01/16 04:46:38;;;;;;;28.77;15.10;;;;;;;1.12;88.17;98977.44;123499;1099;104281;-76
2024/01/16 04:49:10;;;;;;;26.73;13.83;;;;;;;1.16;88.20;98981.95;123573;1098;104355;-77
2024/01/16 04:51:42;;;;;;;30.63;14.10;;;;;;;1.17;87.69;98991.45;123506;1099;104351;-77
2024/01/16 04:54:14;;;;;;;26.23;13.40;;;;;;;1.19;88.22;98995.90;123533;1099;104351;-77
2024/01/16 04:56:45;;;;;;;27.73;13.77;;;;;;;1.25;88.16;98995.32;123257;1099;104236;-77
2024/01/16 04:59:16;;;;;;;28.45;13.85;;;;;;;1.28;87.75;98991.98;123621;1099;104220;-77
2024/01/16 05:01:48;;;;;;;25.50;12.80;;;;;;;1.23;87.69;98997.83;123550;1099;104322;-77
2024/01/16 05:04:19;;;;;;;26.43;13.43;;;;;;;1.19;88.02;98992.44;123212;1099;104316;-76
2024/01/16 05:06:53;;;;;;;28.47;14.30;;;;;;;1.14;87.97;98993.89;123208;1099;104331;-76
2024/01/16 05:09:24;;;;;;;27.50;13.55;;;;;;;1.08;87.83;98999.66;123654;1099;104345;-77
2024/01/16 05:11:55;;;;;;;27.30;13.40;;;;;;;1.05;87.83;99002.97;123819;1099;104226;-77
2024/01/16 05:14:27;;;;;;;28.17;13.60;;;;;;;1.05;88.08;99012.43;123533;1098;104287;-77
2024/01/16 05:16:58;;;;;;;27.87;14.07;;;;;;;1.07;88.05;99011.67;123526;1099;104274;-76
2024/01/16 05:19:29;;;;;;;27.83;13.97;;;;;;;1.08;87.62;99007.41;123581;1099;104277;-77
2024/01/16 05:22:00;;;;;;;28.90;14.10;;;;;;;1.03;87.95;99003.73;123627;1099;104255;-76
2024/01/16 05:24:32;;;;;;;26.90;13.87;;;;;;;0.98;87.95;99005.17;123577;1099;104280;-76
2024/01/16 05:27:04;;;;;;;28.10;14.80;;;;;;;0.94;87.71;99008.44;123594;1099;104368;-77
2024/01/16 05:29:37;;;;;;;30.27;15.37;;;;;;;0.87;87.81;99010.71;123303;1099;104357;-77
2024/01/16 05:32:08;;;;;;;28.33;14.73;;;;;;;0.82;87.89;99003.53;123356;1099;104277;-77
2024/01/16 05:34:40;;;;;;;28.07;15.17;;;;;;;0.76;88.31;99014.42;123645;1099;104274;-76
2024/01/16 05:37:11;;;;;;;33.50;16.57;;;;;;;0.75;88.18;99022.09;123655;1099;104254;-77
2024/01/16 05:39:43;;;;;;;31.10;15.10;;;;;;;0.71;88.20;99027.10;123455;1099;104275;-77
2024/01/16 05:42:15;;;;;;;34.67;18.57;;;;;;;0.68;88.18;99032.11;123737;1099;104395;-77
2024/01/16 05:44:47;;;;;;;53.17;29.05;;;;;;;0.66;88.36;99048.34;115353;1099;10001733;-78
2024/01/16 05:47:19;;;;;;;43.65;24.45;;;;;;;0.67;88.21;99057.84;124095;1098;104322;-78
2024/01/16 05:49:50;;;;;;;38.00;20.50;;;;;;;0.70;88.21;99071.83;115227;1099;10000996;-76
2024/01/16 05:52:21;;;;;;;35.85;18.45;;;;;;;0.71;88.50;99065.83;123756;1099;104284;-77
2024/01/16 05:54:52;;;;;;;36.27;18.83;;;;;;;0.77;87.66;99066.98;123695;1099;104274;-76
2024/01/16 05:57:23;;;;;;;32.93;17.90;;;;;;;0.81;88.38;99074.96;123730;1099;104408;-77
2024/01/16 05:59:55;;;;;;;33.67;17.37;;;;;;;0.83;88.48;99081.08;123990;1099;104322;-77
2024/01/16 06:02:26;;;;;;;34.13;17.37;;;;;;;0.89;89.13;99085.69;123979;1099;104351;-77
2024/01/16 06:04:57;;;;;;;33.03;16.97;;;;;;;0.94;89.02;99096.25;124250;1099;104334;-78
2024/01/16 06:07:28;;;;;;;33.73;17.33;;;;;;;0.97;88.31;99102.45;124092;1099;111913;-77
2024/01/16 06:10:00;;;;;;;33.47;17.43;;;;;;;0.99;88.73;99105.99;124138;1099;104280;-77
2024/01/16 06:12:31;;;;;;;33.00;17.35;;;;;;;1.04;89.16;99112.30;123759;1099;104521;-75
2024/01/16 06:15:02;;;;;;;35.40;19.47;;;;;;;1.07;88.77;99107.26;123823;1099;104322;-75
2024/01/16 06:17:33;;;;;;;36.23;19.70;;;;;;;1.11;88.49;99116.08;123692;1099;104303;-76
2024/01/16 06:20:06;;;;;;;31.70;17.83;;;;;;;1.15;88.79;99117.11;123847;1099;104220;-75
2024/01/16 06:22:37;;;;;;;33.60;19.00;;;;;;;1.19;88.98;99119.92;125056;1098;104169;-77
2024/01/16 06:25:09;;;;;;;34.13;19.43;;;;;;;1.26;88.72;99121.11;124171;1099;104405;-75
2024/01/16 06:27:41;;;;;;;35.93;18.40;;;;;;;1.34;88.22;99112.07;124352;1099;104297;-76
2024/01/16 06:30:14;;;;;;;37.80;18.33;;;;;;;1.37;88.29;99111.31;124159;1102;104246;-76
2024/01/16 06:32:45;;;;;;;32.63;19.13;;;;;;;1.40;88.89;99125.30;124233;1099;104255;-76
2024/01/16 06:35:17;;;;;;;34.10;18.87;;;;;;;1.42;88.64;99133.13;124580;1099;104185;-76
2024/01/16 06:37:49;;;;;;;32.90;17.57;;;;;;;1.36;88.75;99127.66;124574;1099;104172;-76
2024/01/16 06:40:21;;;;;;;34.80;17.27;;;;;;;1.46;88.78;99149.67;124319;1098;102613;-76
2024/01/16 06:42:52;;;;;;;34.65;17.80;;;;;;;1.55;88.59;99157.89;124590;1099;104277;-76
2024/01/16 06:45:26;;;;;;;34.13;16.87;;;;;;;1.49;88.36;99145.53;124743;1099;104655;-76
2024/01/16 06:47:58;;;;;;;34.55;17.98;;;;;;;1.43;88.38;99153.89;124670;1099;104262;-77
2024/01/16 06:50:31;;;;;;;34.97;18.43;;;;;;;1.41;88.62;99158.08;124311;1099;104345;-76
2024/01/16 06:53:04;;;;;;;35.37;18.87;;;;;;;1.42;88.51;99179.66;124300;1099;104160;-77
2024/01/16 06:55:35;;;;;;;35.93;20.33;;;;;;;1.42;88.58;99188.30;126872;1099;102852;-76
2024/01/16 06:58:07;;;;;;;40.13;22.00;;;;;;;1.52;89.02;99199.98;126770;1099;101818;-77
2024/01/16 07:00:38;;;;;;;40.27;22.57;;;;;;;1.63;88.93;99213.45;126819;1099;101952;-75
2024/01/16 07:03:09;;;;;;;40.53;23.03;;;;;;;1.69;88.85;99221.52;125331;1099;104392;-75
2024/01/16 07:05:41;;;;;;;43.17;25.23;;;;;;;1.75;88.93;99229.59;124868;1099;104117;-75
2024/01/16 07:08:13;;;;;;;48.27;28.73;;;;;;;1.82;89.40;99237.66;124739;1099;104364;-75
2024/01/16 07:10:44;;;;;;;48.43;26.57;;;;;;;1.89;89.41;99242.34;124748;1099;104225;-75
2024/01/16 07:13:16;;;;;;;46.67;26.67;;;;;;;1.97;88.72;99248.77;124903;1099;104245;-75
2024/01/16 07:15:48;;;;;;;38.20;21.83;;;;;;;2.00;89.39;99254.09;124995;1099;104283;-75
2024/01/16 07:18:22;;;;;;;42.03;24.00;;;;;;;2.07;89.07;99255.28;124293;1099;104166;-75
2024/01/16 07:20:53;;;;;;;41.37;23.80;;;;;;;2.15;89.20;99249.69;124792;1099;104165;-74
2024/01/16 07:23:25;;;;;;;39.20;21.00;;;;;;;2.23;88.94;99252.65;124243;1099;104249;-75
2024/01/16 07:25:56;;;;;;;41.90;23.17;;;;;;;2.29;88.72;99272.75;124632;1099;103104;-75
2024/01/16 07:28:28;;;;;;;41.60;23.27;;;;;;;2.37;88.96;99289.56;124331;1099;102505;-75
2024/01/16 07:31:03;;;;;;;47.40;25.40;;;;;;;2.44;89.36;99294.20;124915;1099;104270;-75
2024/01/16 07:33:34;;;;;;;47.43;25.53;;;;;;;2.51;89.37;99296.30;124343;1099;104252;-75
2024/01/16 07:36:06;;;;;;;44.77;25.63;;;;;;;2.58;89.64;99296.59;124760;1099;104249;-75
2024/01/16 07:38:37;;;;;;;46.53;25.20;;;;;;;2.61;89.24;99307.97;124770;1099;104248;-74
2024/01/16 07:41:09;;;;;;;44.90;25.00;;;;;;;2.58;88.89;99312.12;124546;1099;104246;-74
2024/01/16 07:43:44;;;;;;;43.67;24.43;;;;;;;2.60;89.01;99311.40;124700;1099;104348;-75
2024/01/16 07:46:16;;;;;;;41.47;23.40;;;;;;;2.67;89.29;99305.68;125019;1099;102148;-76
2024/01/16 07:48:49;;;;;;;49.40;25.40;;;;;;;2.73;89.40;99310.27;124842;1099;102963;-74
2024/01/16 07:51:24;;;;;;;43.03;24.90;;;;;;;2.79;88.97;99313.16;124664;1099;104184;-75
2024/01/16 07:54:10;;;;;;;40.27;22.70;;;;;;;2.87;88.91;99313.52;124744;1099;104313;-74
2024/01/16 07:56:42;;;;;;;38.83;21.77;;;;;;;2.93;88.85;99313.81;124776;1099;104254;-74
2024/01/16 07:59:15;;;;;;;36.40;20.70;;;;;;;2.84;88.60;99319.44;124300;1099;102869;-74
2024/01/16 08:01:47;;;;;;;37.93;21.30;;;;;;;2.74;88.79;99335.34;124933;1099;104181;-75
2024/01/16 08:04:19;;;;;;;38.00;21.63;;;;;;;2.72;89.22;99339.58;124748;1099;104246;-74
2024/01/16 08:06:55;;;;;;;42.00;23.33;;;;;;;2.70;88.93;99336.03;124247;1099;104323;-75
2024/01/16 08:09:26;;;;;;;43.77;24.40;;;;;;;2.77;88.92;99329.44;124189;1099;102253;-75
2024/01/16 08:11:57;;;;;;;42.20;23.67;;;;;;;2.79;88.62;99336.48;124143;1099;104213;-75
2024/01/16 08:14:29;;;;;;;41.67;23.07;;;;;;;2.88;88.48;99348.96;124568;1099;104731;-75
2024/01/16 08:17:00;;;;;;;44.97;26.40;;;;;;;2.86;88.12;99337.65;124596;1099;104276;-74
2024/01/16 08:19:34;;;;;;;49.47;28.97;;;;;;;2.84;88.32;99342.76;124697;1099;104252;-75
2024/01/16 08:22:06;;;;;;;54.13;31.75;;;;;;;2.78;88.94;99341.59;124781;1099;102116;-74
2024/01/16 08:24:37;;;;;;;60.70;36.73;;;;;;;2.75;88.67;99342.31;125022;1099;104214;-75
2024/01/16 08:27:09;;;;;;;56.77;33.67;;;;;;;2.74;88.62;99345.70;124873;1099;104245;-75
2024/01/16 08:29:40;;;;;;;50.30;29.90;;;;;;;2.72;88.58;99362.89;124351;1099;105626;-74
2024/01/16 08:32:12;;;;;;;50.43;29.17;;;;;;;2.80;89.07;99361.55;124845;1099;104302;-74
2024/01/16 08:34:43;;;;;;;44.23;24.67;;;;;;;2.85;88.53;99365.27;124638;1099;103778;-75
2024/01/16 08:37:17;;;;;;;39.00;20.77;;;;;;;2.84;88.50;99366.08;124585;1099;104242;-76
2024/01/16 08:39:49;;;;;;;40.90;22.10;;;;;;;2.85;88.37;99369.55;124250;1099;104299;-76
2024/01/16 08:42:20;;;;;;;38.73;21.50;;;;;;;2.88;87.93;99360.23;124461;1099;104178;-77
2024/01/16 08:44:51;;;;;;;36.97;20.60;;;;;;;2.92;87.92;99360.38;124649;1099;104274;-76
2024/01/16 08:47:24;;;;;;;37.17;19.47;;;;;;;2.95;88.54;99370.90;124697;1099;104401;-76
2024/01/16 08:49:56;;;;;;;36.47;18.97;;;;;;;2.99;88.24;99363.34;124620;1099;104248;-77
2024/01/16 08:52:28;;;;;;;34.50;19.20;;;;;;;3.00;88.55;99369.41;124329;1099;104345;-77
2024/01/16 08:54:59;;;;;;;36.30;20.00;;;;;;;3.05;88.34;99370.50;125028;1099;104248;-76
2024/01/16 08:57:30;;;;;;;35.63;19.57;;;;;;;3.08;87.50;99374.95;125337;1099;104255;-77
2024/01/16 09:00:03;;;;;;;36.30;20.17;;;;;;;3.12;87.78;99374.30;124848;1099;102195;-76
2024/01/16 09:02:34;;;;;;;33.37;19.03;;;;;;;3.19;87.91;99372.03;124754;1099;104737;-76
2024/01/16 09:05:06;;;;;;;34.77;18.30;;;;;;;3.20;88.19;99367.76;125043;1099;103356;-75
2024/01/16 09:07:43;;;;;;;33.95;18.00;;;;;;;3.26;87.97;99367.13;124765;1099;104190;-75
2024/01/16 09:10:15;;;;;;;33.90;18.87;;;;;;;3.31;88.48;99369.14;124592;1099;104313;-76
2024/01/16 09:12:46;;;;;;;34.80;19.03;;;;;;;3.41;87.95;99373.03;124729;1099;103588;-75
2024/01/16 09:15:17;;;;;;;31.90;16.83;;;;;;;3.48;87.84;99380.29;125159;1099;104200;-76
2024/01/16 09:17:49;;;;;;;37.20;17.03;;;;;;;3.50;88.13;99378.64;125178;1099;102744;-75
2024/01/16 09:20:22;;;;;;;26.70;14.00;;;;;;;3.46;86.81;99387.12;124965;1099;104236;-75
2024/01/16 09:22:53;;;;;;;30.53;13.67;;;;;;;3.44;86.90;99382.67;124560;1100;102165;-75
2024/01/16 09:25:29;;;;;;;28.17;14.27;;;;;;;3.45;86.49;99382.74;124716;1099;104191;-75
2024/01/16 09:28:01;;;;;;;26.53;14.23;;;;;;;3.53;86.67;99391.75;124610;1099;104223;-77
2024/01/16 09:30:33;;;;;;;26.20;13.13;;;;;;;3.55;85.91;99392.73;124542;1099;104278;-75
2024/01/16 09:33:06;;;;;;;26.07;13.60;;;;;;;3.55;86.25;99402.20;124472;1099;104219;-76
2024/01/16 09:35:38;;;;;;;26.90;12.45;;;;;;;3.60;86.53;99396.42;124106;1099;104341;-77
2024/01/16 09:38:09;;;;;;;27.40;13.33;;;;;;;3.64;85.92;99404.34;124052;1099;104198;-76
2024/01/16 09:40:40;;;;;;;26.90;13.77;;;;;;;3.68;85.76;99406.27;124408;1099;104217;-75
2024/01/16 09:43:12;;;;;;;26.13;13.30;;;;;;;3.70;85.46;99408.09;124265;1099;104347;-75
2024/01/16 09:45:43;;;;;;;26.03;13.27;;;;;;;3.77;85.01;99417.94;124203;1099;104165;-75
2024/01/16 09:48:16;;;;;;;29.87;13.73;;;;;;;3.86;84.57;99422.64;124272;1099;104365;-76
2024/01/16 09:50:47;;;;;;;25.03;12.43;;;;;;;3.89;85.30;99412.39;125317;1099;104374;-75
2024/01/16 09:53:21;;;;;;;26.17;12.93;;;;;;;3.89;83.45;99408.92;124398;1099;104350;-76
2024/01/16 09:56:01;;;;;;;26.47;13.07;;;;;;;3.89;84.20;99417.59;124370;1099;104274;-75
2024/01/16 09:58:37;;;;;;;25.60;13.23;;;;;;;3.91;84.15;99420.25;124291;1099;101947;-76
2024/01/16 10:01:09;;;;;;;27.70;13.40;;;;;;;3.93;83.39;99421.23;124307;1099;104316;-77
2024/01/16 10:03:42;;;;;;;23.93;10.67;;;;;;;3.90;83.00;99421.97;124632;1099;101894;-77
2024/01/16 10:06:17;;;;;;;26.50;11.93;;;;;;;3.93;82.34;99432.49;124578;1099;104380;-76
2024/01/16 10:08:47;;;;;;;;;;;;;;;3.93;81.39;99437.68;124252;1099;102536;-75
2024/01/16 10:11:18;;;;;;;23.67;13.10;;;;;;;4.01;83.31;99430.23;123923;1099;103000;-75
2024/01/16 10:13:50;;;;;;;21.40;10.05;;;;;;;4.18;83.34;99436.18;124406;1099;104351;-76
2024/01/16 10:16:22;;;;;;;21.33;10.10;;;;;;;4.20;80.08;99451.83;124454;1099;104172;-76
2024/01/16 10:19:04;;;;;;;21.50;9.70;;;;;;;4.10;80.09;99451.42;124061;1099;104160;-76
2024/01/16 10:21:35;;;;;;;20.27;9.10;;;;;;;3.92;81.27;99459.25;124388;1099;104330;-75
2024/01/16 10:24:16;;;;;;;21.53;9.17;;;;;;;3.81;80.28;99454.41;124063;1099;104258;-75
2024/01/16 10:27:02;;;;;;;22.07;8.87;;;;;;;3.66;79.25;99460.68;124359;1099;104364;-75
2024/01/16 10:29:33;;;;;;;23.00;10.27;;;;;;;3.62;80.83;99461.34;124461;1099;104331;-75
2024/01/16 10:32:09;;;;;;;20.60;9.33;;;;;;;3.70;80.86;99464.30;124585;1099;104364;-75
2024/01/16 10:34:40;;;;;;;20.63;9.67;;;;;;;3.74;80.27;99466.19;124492;1099;104245;-74
2024/01/16 10:37:12;;;;;;;22.73;11.00;;;;;;;3.74;79.96;99474.89;124060;1098;104255;-74
2024/01/16 10:39:43;;;;;;;25.40;10.77;;;;;;;3.70;78.44;99469.48;124504;1099;104166;-74
2024/01/16 10:42:20;;;;;;;22.23;11.03;;;;;;;3.71;79.29;99479.02;124303;1098;104248;-74
2024/01/16 10:44:56;;;;;;;23.43;10.70;;;;;;;3.70;79.70;99478.14;124546;1099;104204;-75
2024/01/16 10:47:28;;;;;;;22.87;10.77;;;;;;;3.67;78.88;99484.91;124506;1099;104197;-75
2024/01/16 10:49:59;;;;;;;24.23;10.80;;;;;;;3.67;79.41;99487.50;124709;1099;104197;-75
2024/01/16 10:52:36;;;;;;;22.50;10.90;;;;;;;3.68;79.75;99490.17;124602;1099;104284;-74
2024/01/16 10:55:11;;;;;;;22.43;10.77;;;;;;;3.80;79.47;99486.36;125530;1099;102937;-74
2024/01/16 10:57:43;;;;;;;21.93;9.90;;;;;;;3.89;79.02;99485.06;124840;1099;102101;-74
2024/01/16 11:00:17;;;;;;;25.30;11.10;;;;;;;3.94;78.93;99488.78;125187;1099;104885;-76
2024/01/16 11:02:55;;;;;;;22.47;11.70;;;;;;;3.86;78.72;99490.12;125223;1099;104245;-75
2024/01/16 11:05:31;;;;;;;20.73;10.30;;;;;;;3.81;78.20;99485.55;125482;1099;102847;-75
2024/01/16 11:08:04;;;;;;;24.83;11.07;;;;;;;3.73;78.36;99495.58;125149;1099;104168;-77
2024/01/16 11:10:36;;;;;;;26.43;12.37;;;;;;;3.63;78.60;99502.05;125324;1099;104219;-77
2024/01/16 11:13:09;;;;;;;23.27;11.83;;;;;;;3.57;78.55;99501.75;125217;1099;102501;-76
2024/01/16 11:15:42;;;;;;;23.20;11.17;;;;;;;3.51;78.25;99504.05;125124;1099;104396;-76
2024/01/16 11:18:17;;;;;;;24.60;12.80;;;;;;;3.46;78.02;99505.52;124562;1099;104254;-75
2024/01/16 11:20:49;;;;;;;25.47;12.27;;;;;;;3.46;78.90;99514.20;124700;1099;104286;-75
2024/01/16 11:23:21;;;;;;;27.03;12.70;;;;;;;3.46;79.24;99515.89;125042;1099;104245;-76
2024/01/16 11:25:54;;;;;;;24.90;11.67;;;;;;;3.48;78.80;99517.75;125051;1098;104226;-76
2024/01/16 11:28:31;;;;;;;23.90;11.67;;;;;;;3.50;79.07;99512.64;125210;1099;104344;-75
2024/01/16 11:31:32;;;;;;;26.07;12.47;;;;;;;3.52;78.47;99517.09;124766;1099;104293;-75